createdAt,value
2019-01-17T00:02:30.023Z,99253.64
2019-01-17T00:06:56.232Z,99249.64
2019-01-17T00:11:18.779Z,99244.78
2019-01-17T00:15:39.265Z,99238.58
2019-01-17T00:20:00.915Z,99239.31
2019-01-17T00:24:22.874Z,99233.11
2019-01-17T00:28:45.107Z,99221.03
2019-01-17T00:33:17.402Z,99220.98
2019-01-17T00:37:40.543Z,99216.23
2019-01-17T00:42:02.278Z,99210.42
2019-01-17T00:46:24.099Z,99206.38
2019-01-17T00:50:56.314Z,99212.23
2019-01-17T00:55:15.899Z,99218.58
2019-01-17T00:59:31.443Z,99223.77
2019-01-17T01:03:53.058Z,99222.47
2019-01-17T01:08:22.644Z,99222.03
2019-01-17T01:12:42.332Z,99225.98
2019-01-17T01:17:13.779Z,99219.92
2019-01-17T01:21:46.057Z,99217.33
2019-01-17T01:26:04.606Z,99216.89
2019-01-17T01:30:36.524Z,99226.84
2019-01-17T01:34:58.190Z,99215.11
2019-01-17T01:39:39.259Z,99220.58
2019-01-17T01:44:00.777Z,99208.77
2019-01-17T01:48:25.124Z,99195.84
2019-01-17T01:52:38.867Z,99197.47
2019-01-17T01:56:43.095Z,99196.50
2019-01-17T02:00:47.826Z,99190.06
2019-01-17T02:04:51.987Z,99192.23
2019-01-17T02:08:56.667Z,99189.54
2019-01-17T02:13:01.042Z,99185.11
2019-01-17T02:17:05.729Z,99194.56
2019-01-17T02:21:09.894Z,99201.67
2019-01-17T02:25:14.018Z,99194.92
2019-01-17T02:29:18.227Z,99195.48
2019-01-17T02:33:22.657Z,99179.48
2019-01-17T02:37:27.045Z,99175.22
2019-01-17T02:41:31.391Z,99186.98
2019-01-17T02:45:35.540Z,99183.96
2019-01-17T02:49:39.733Z,99205.20
2019-01-17T02:53:43.899Z,99194.83
2019-01-17T02:57:48.078Z,99198.39
2019-01-17T03:01:52.293Z,99191.79
2019-01-17T03:05:56.730Z,99181.70
2019-01-17T03:10:01.110Z,99180.89
2019-01-17T03:14:05.334Z,99181.42
2019-01-17T03:18:09.470Z,99171.33
2019-01-17T03:22:13.623Z,99166.86
2019-01-17T03:26:17.795Z,99170.20
2019-01-17T03:30:21.970Z,99164.92
2019-01-17T03:34:26.811Z,99167.56
2019-01-17T03:38:30.913Z,99156.87
2019-01-17T03:42:35.053Z,99149.14
2019-01-17T03:46:39.208Z,99139.20
2019-01-17T03:50:43.328Z,99136.12
2019-01-17T03:54:51.974Z,99133.11
2019-01-17T03:58:53.432Z,99120.67
2019-01-17T04:02:57.574Z,99110.80
2019-01-17T04:07:01.688Z,99134.45
2019-01-17T04:11:05.868Z,99128.52
2019-01-17T04:15:10.472Z,99133.72
2019-01-17T04:19:14.602Z,99139.91
2019-01-17T04:23:18.788Z,99126.94
2019-01-17T04:27:23.531Z,99133.81
2019-01-17T04:31:27.708Z,99137.38
2019-01-17T04:35:31.887Z,99140.67
2019-01-17T04:39:36.080Z,99166.81
2019-01-17T04:43:40.220Z,99162.48
2019-01-17T04:47:44.392Z,99150.34
2019-01-17T04:51:48.564Z,99154.50
2019-01-17T04:55:52.709Z,99150.13
2019-01-17T04:59:56.869Z,99172.64
2019-01-17T05:04:01.029Z,99168.76
2019-01-17T05:08:05.200Z,99170.98
2019-01-17T05:12:09.367Z,99178.37
2019-01-17T05:16:14.675Z,99181.02
2019-01-17T05:20:18.834Z,99171.13
2019-01-17T05:24:23.244Z,99172.15
2019-01-17T05:28:27.415Z,99176.04
2019-01-17T05:32:36.676Z,99172.97
2019-01-17T05:36:37.436Z,99186.03
2019-01-17T05:40:41.607Z,99189.17
2019-01-17T05:44:45.914Z,99194.35
2019-01-17T05:48:50.160Z,99194.83
2019-01-17T05:52:54.481Z,99184.94
2019-01-17T05:56:58.649Z,99187.53
2019-01-17T06:01:02.807Z,99182.62
2019-01-17T06:05:07.456Z,99188.67
2019-01-17T06:09:11.628Z,99180.37
2019-01-17T06:13:15.949Z,99177.06
2019-01-17T06:17:20.114Z,99185.38
2019-01-17T06:21:24.247Z,99181.67
2019-01-17T06:25:28.469Z,99176.86
2019-01-17T06:29:32.641Z,99188.52
2019-01-17T06:33:36.814Z,99188.03
2019-01-17T06:37:40.971Z,99187.33
2019-01-17T06:41:45.115Z,99186.13
2019-01-17T06:45:49.258Z,99197.47
2019-01-17T06:49:53.415Z,99198.34
2019-01-17T06:53:57.707Z,99204.92
2019-01-17T06:58:01.825Z,99204.22
2019-01-17T07:02:06.022Z,99210.11
2019-01-17T07:06:10.182Z,99217.84
2019-01-17T07:10:16.073Z,99232.05
2019-01-17T07:14:20.191Z,99230.45
2019-01-17T07:18:24.429Z,99230.58
2019-01-17T07:22:28.569Z,99221.22
2019-01-17T07:26:32.727Z,99236.02
2019-01-17T07:30:36.881Z,99235.69
2019-01-17T07:34:41.008Z,99234.48
2019-01-17T07:38:45.249Z,99233.83
2019-01-17T07:42:49.447Z,99218.33
2019-01-17T07:46:53.576Z,99219.47
2019-01-17T07:50:57.734Z,99226.11
2019-01-17T07:55:01.915Z,99226.69
2019-01-17T07:59:06.385Z,99229.82
2019-01-17T08:03:14.805Z,99228.14
2019-01-17T08:07:18.990Z,99222.95
2019-01-17T08:11:23.111Z,99225.74
2019-01-17T08:15:28.759Z,99222.48
2019-01-17T08:19:32.937Z,99227.38
2019-01-17T08:23:37.102Z,99234.27
2019-01-17T08:27:41.244Z,99240.17
2019-01-17T08:31:45.403Z,99243.91
2019-01-17T08:35:49.567Z,99230.25
2019-01-17T08:39:53.695Z,99230.82
2019-01-17T08:43:57.846Z,99230.86
2019-01-17T08:48:02.028Z,99220.52
2019-01-17T08:52:06.401Z,99230.19
2019-01-17T08:56:11.076Z,99232.01
2019-01-17T09:00:17.416Z,99229.67
2019-01-17T09:04:21.579Z,99234.87
2019-01-17T09:08:25.736Z,99238.42
2019-01-17T09:12:29.900Z,99236.86
2019-01-17T09:16:34.367Z,99245.27
2019-01-17T09:20:38.523Z,99239.77
2019-01-17T09:24:42.635Z,99249.99
2019-01-17T09:28:46.867Z,99242.75
2019-01-17T09:32:51.045Z,99241.27
2019-01-17T09:36:55.219Z,99230.83
2019-01-17T09:40:59.391Z,99232.13
2019-01-17T09:45:03.543Z,99223.00
2019-01-17T09:49:07.700Z,99218.55
2019-01-17T09:53:11.877Z,99220.77
2019-01-17T09:57:16.059Z,99222.20
2019-01-17T10:01:20.199Z,99219.84
2019-01-17T10:05:25.603Z,99213.88
2019-01-17T10:09:29.690Z,99211.52
2019-01-17T10:13:33.875Z,99207.36
2019-01-17T10:18:14.837Z,99213.45
2019-01-17T10:23:18.353Z,99194.45
2019-01-17T10:27:47.652Z,99196.77
2019-01-17T10:32:47.716Z,99199.03
2019-01-17T10:37:39.808Z,99196.45
2019-01-17T10:42:20.806Z,99197.77
2019-01-17T10:46:53.183Z,99191.64
2019-01-17T10:51:32.026Z,99197.19
2019-01-17T10:56:41.061Z,99188.38
2019-01-17T11:01:23.544Z,99177.01
2019-01-17T11:06:26.578Z,99172.20
2019-01-17T11:11:26.526Z,99157.81
2019-01-17T11:16:20.728Z,99150.00
2019-01-17T11:20:49.536Z,99145.66
2019-01-17T11:25:24.151Z,99139.19
2019-01-17T11:29:59.891Z,99135.74
2019-01-17T11:34:33.643Z,99127.04
2019-01-17T11:39:26.539Z,99118.78
2019-01-17T11:44:16.017Z,99114.44
2019-01-17T11:48:58.428Z,99103.98
2019-01-17T11:53:34.274Z,99101.39
2019-01-17T11:58:20.929Z,99100.98
2019-01-17T12:03:11.820Z,99098.41
2019-01-17T12:07:18.619Z,99094.47
2019-01-17T12:11:22.926Z,99084.86
2019-01-17T12:15:27.190Z,99072.63
2019-01-17T12:19:31.475Z,99061.25
2019-01-17T12:23:35.737Z,99057.33
2019-01-17T12:27:42.687Z,99046.80
2019-01-17T12:31:46.101Z,99037.62
2019-01-17T12:35:50.482Z,99034.97
2019-01-17T12:39:54.789Z,99033.63
2019-01-17T12:43:59.040Z,99035.80
2019-01-17T12:48:03.335Z,99040.63
2019-01-17T12:52:07.927Z,99035.38
2019-01-17T12:56:12.229Z,99028.82
2019-01-17T13:00:19.014Z,99031.44
2019-01-17T13:04:23.275Z,99025.75
2019-01-17T13:08:27.552Z,99010.44
2019-01-17T13:12:31.826Z,99011.30
2019-01-17T13:16:38.850Z,99012.16
2019-01-17T13:20:43.911Z,99002.97
2019-01-17T13:24:49.421Z,99005.14
2019-01-17T13:28:53.858Z,99001.55
2019-01-17T13:32:58.456Z,99001.47
2019-01-17T13:37:03.437Z,98993.45
2019-01-17T13:41:07.803Z,98997.31
2019-01-17T13:45:15.428Z,98998.59
2019-01-17T13:49:21.438Z,98987.61
2019-01-17T13:53:26.014Z,98985.43
2019-01-17T13:57:31.485Z,98980.20
2019-01-17T14:01:35.823Z,98975.78
2019-01-17T14:05:40.105Z,98976.64
2019-01-17T14:09:44.600Z,98977.95
2019-01-17T14:13:53.392Z,98977.50
2019-01-17T14:17:57.865Z,98976.62
2019-01-17T14:22:03.378Z,98968.73
2019-01-17T14:26:08.087Z,98982.73
2019-01-17T14:30:23.515Z,98976.18
2019-01-17T14:34:27.738Z,98974.92
2019-01-17T14:38:32.307Z,98973.98
2019-01-17T14:42:36.552Z,98973.55
2019-01-17T14:46:40.875Z,98984.53
2019-01-17T14:50:45.160Z,98984.58
2019-01-17T14:54:50.193Z,98983.74
2019-01-17T14:58:56.581Z,98968.02
2019-01-17T15:03:20.522Z,98982.09
2019-01-17T15:07:24.850Z,98982.99
2019-01-17T15:11:29.270Z,98976.44
2019-01-17T15:15:33.707Z,98980.39
2019-01-17T15:19:38.133Z,98986.11
2019-01-17T15:28:18.121Z,98988.35
2019-01-17T15:32:22.637Z,98994.06
2019-01-17T15:36:27.000Z,98998.91
2019-01-17T15:40:31.977Z,98991.03
2019-01-17T15:44:36.881Z,98987.56
2019-01-17T15:48:41.200Z,98978.48
2019-01-17T15:53:04.591Z,98977.23
2019-01-17T15:57:09.018Z,98979.44
2019-01-17T16:01:32.616Z,98977.72
2019-01-17T16:05:36.902Z,98967.70
2019-01-17T16:09:41.157Z,98963.34
2019-01-17T16:13:45.664Z,98963.34
2019-01-17T16:18:09.047Z,98973.00
2019-01-17T16:22:13.424Z,98970.77
2019-01-17T16:26:17.677Z,98980.81
2019-01-17T16:30:30.067Z,98984.29
2019-01-17T16:34:34.449Z,98983.80
2019-01-17T16:38:38.753Z,98980.66
2019-01-17T16:42:43.203Z,98980.64
2019-01-17T16:46:47.433Z,98981.50
2019-01-17T16:50:51.708Z,98989.76
2019-01-17T16:54:56.037Z,98987.13
2019-01-17T16:59:00.374Z,98989.19
2019-01-17T18:09:46.248Z,99012.24
2019-01-17T18:13:50.555Z,99015.80
2019-01-17T18:17:54.829Z,99024.61
2019-01-17T18:21:59.306Z,99024.70
2019-01-17T18:26:04.871Z,99017.41
2019-01-17T18:30:15.392Z,99001.33
2019-01-17T18:34:19.744Z,98998.76
2019-01-17T18:38:23.912Z,99016.28
2019-01-17T18:42:28.290Z,99026.78
2019-01-17T18:46:32.608Z,99041.53
2019-01-17T18:50:36.893Z,99047.52
2019-01-17T18:54:41.223Z,99051.39
2019-01-17T18:58:45.596Z,99058.77
2019-01-17T19:02:49.891Z,99071.35
2019-01-17T19:06:56.975Z,99076.59
2019-01-17T19:25:54.370Z,99104.86
2019-01-17T19:29:59.064Z,99103.38
2019-01-17T19:44:26.219Z,99095.98
2019-01-17T19:48:39.696Z,99090.74
2019-01-17T19:52:44.499Z,99091.59
2019-01-17T19:56:54.910Z,99089.38
2019-01-17T20:00:59.322Z,99095.45
2019-01-17T20:05:04.121Z,99101.01
2019-01-17T20:14:10.846Z,99107.05
2019-01-17T20:18:15.573Z,99111.88
2019-01-17T20:22:19.861Z,99124.98
2019-01-17T20:26:24.583Z,99125.83
2019-01-17T20:30:31.104Z,99121.84
2019-01-17T20:34:35.447Z,99123.16
2019-01-17T20:38:39.788Z,99141.58
2019-01-17T20:42:44.086Z,99148.58
2019-01-17T20:46:48.912Z,99149.05
2019-01-17T20:50:53.237Z,99149.59
2019-01-17T20:54:57.541Z,99153.16
2019-01-17T20:59:02.946Z,99156.98
2019-01-17T21:03:08.982Z,99151.14
2019-01-17T21:07:13.217Z,99168.63
2019-01-17T21:11:17.989Z,99165.81
2019-01-17T21:15:22.319Z,99178.05
2019-01-17T21:19:26.735Z,99180.59
2019-01-17T21:23:31.215Z,99170.00
2019-01-17T21:27:35.509Z,99177.98
2019-01-17T21:31:58.353Z,99190.24
2019-01-17T21:36:02.631Z,99182.03
2019-01-17T21:40:09.514Z,99184.73
2019-01-17T21:44:13.826Z,99189.11
2019-01-17T22:28:53.171Z,99198.41
2019-01-17T22:33:00.166Z,99197.98
2019-01-17T22:37:04.522Z,99201.05
2019-01-17T22:41:12.173Z,99179.27
2019-01-17T22:45:19.008Z,99198.05
2019-01-17T22:49:23.381Z,99200.25
2019-01-17T22:53:35.985Z,99200.23
2019-01-17T22:57:41.169Z,99192.37
2019-01-17T23:01:45.584Z,99200.23
2019-01-17T23:05:51.036Z,99187.16
2019-01-17T23:09:56.883Z,99199.83
2019-01-17T23:14:01.342Z,99190.67
2019-01-17T23:54:55.727Z,99189.42
2019-01-17T23:59:00.118Z,99205.13
